createdAt,value
2023-05-15T00:02:15.414Z,3.72
2023-05-15T00:04:42.562Z,4.53
2023-05-15T00:07:09.498Z,4.28
2023-05-15T00:09:37.775Z,4.25
2023-05-15T00:12:05.295Z,5.55
2023-05-15T00:14:33.355Z,4.38
2023-05-15T00:17:00.357Z,6.78
2023-05-15T00:19:27.232Z,5.18
2023-05-15T00:21:54.198Z,2.22
2023-05-15T00:24:22.003Z,3.97
2023-05-15T00:26:50.404Z,3.17
2023-05-15T00:29:17.371Z,2.72
2023-05-15T00:31:45.216Z,3.55
2023-05-15T00:34:12.129Z,3.95
2023-05-15T00:36:39.045Z,3.25
2023-05-15T00:39:06.013Z,3.90
2023-05-15T00:41:33.783Z,3.20
2023-05-15T00:44:02.527Z,3.03
2023-05-15T00:46:31.626Z,4.15
2023-05-15T00:48:58.798Z,4.82
2023-05-15T00:51:26.417Z,3.80
2023-05-15T00:53:54.935Z,5.03
2023-05-15T00:58:49.237Z,3.00
2023-05-15T01:01:17.953Z,3.22
2023-05-15T01:03:45.096Z,3.67
2023-05-15T01:06:12.316Z,5.22
2023-05-15T01:08:46.390Z,3.63
2023-05-15T01:11:14.627Z,4.25
2023-05-15T01:13:41.661Z,3.38
2023-05-15T01:16:09.095Z,3.05
2023-05-15T01:18:37.868Z,3.47
2023-05-15T01:21:44.695Z,3.80
2023-05-15T01:24:24.573Z,3.58
2023-05-15T01:27:07.127Z,5.22
2023-05-15T01:29:37.997Z,3.92
2023-05-15T01:32:09.841Z,4.38
2023-05-15T01:34:46.094Z,4.63
2023-05-15T01:37:14.679Z,4.53
2023-05-15T01:39:42.833Z,4.38
2023-05-15T01:42:13.790Z,3.58
2023-05-15T01:44:45.961Z,4.20
2023-05-15T01:47:14.475Z,3.92
2023-05-15T01:52:13.639Z,7.13
2023-05-15T01:54:42.581Z,6.43
2023-05-15T01:57:11.748Z,3.75
2023-05-15T01:59:39.350Z,6.05
2023-05-15T02:02:06.457Z,4.45
2023-05-15T02:04:33.795Z,3.88
2023-05-15T02:07:01.881Z,4.97
2023-05-15T02:09:29.065Z,4.53
2023-05-15T02:11:57.210Z,7.95
2023-05-15T02:14:26.653Z,4.63
2023-05-15T02:16:53.630Z,4.13
2023-05-15T02:19:20.646Z,4.68
2023-05-15T02:21:47.627Z,3.58
2023-05-15T02:24:14.527Z,5.53
2023-05-15T02:26:48.025Z,5.57
2023-05-15T02:29:22.826Z,6.60
2023-05-15T02:32:00.538Z,5.90
2023-05-15T02:34:33.324Z,9.45
2023-05-15T02:37:01.300Z,5.00
2023-05-15T02:39:29.408Z,8.73
2023-05-15T02:41:57.223Z,7.63
2023-05-15T02:44:25.107Z,7.70
2023-05-15T02:46:53.766Z,6.03
2023-05-15T02:49:21.396Z,5.00
2023-05-15T02:51:48.493Z,4.55
2023-05-15T02:54:15.399Z,6.22
2023-05-15T02:56:42.349Z,4.85
2023-05-15T02:59:09.319Z,5.78
2023-05-15T03:01:36.347Z,5.50
2023-05-15T03:04:05.021Z,5.80
2023-05-15T03:06:32.081Z,5.00
2023-05-15T03:08:59.132Z,4.15
2023-05-15T03:11:26.022Z,5.35
2023-05-15T03:13:52.938Z,3.13
2023-05-15T03:16:19.993Z,2.90
2023-05-15T03:18:46.949Z,4.60
2023-05-15T03:21:15.300Z,3.72
2023-05-15T03:23:42.219Z,4.03
2023-05-15T03:26:09.083Z,5.00
2023-05-15T03:28:36.032Z,3.30
2023-05-15T03:31:04.921Z,5.18
2023-05-15T03:33:32.434Z,3.30
2023-05-15T03:35:59.445Z,5.30
2023-05-15T03:38:27.720Z,3.50
2023-05-15T03:40:54.648Z,3.88
2023-05-15T03:43:21.664Z,4.68
2023-05-15T03:46:08.091Z,5.43
2023-05-15T03:48:35.004Z,4.90
2023-05-15T03:51:06.133Z,5.88
2023-05-15T03:53:34.467Z,7.60
2023-05-15T03:56:01.364Z,6.25
2023-05-15T03:58:28.283Z,4.32
2023-05-15T04:00:55.159Z,6.15
2023-05-15T04:03:22.197Z,4.32
2023-05-15T04:05:50.246Z,4.75
2023-05-15T04:08:17.207Z,4.10
2023-05-15T04:10:45.754Z,3.42
2023-05-15T04:13:12.704Z,3.50
2023-05-15T04:15:40.554Z,5.07
2023-05-15T04:18:07.501Z,3.85
2023-05-15T04:20:34.516Z,4.90
2023-05-15T04:23:04.285Z,4.65
2023-05-15T04:25:31.557Z,4.45
2023-05-15T04:27:59.878Z,4.10
2023-05-15T04:30:26.860Z,5.13
2023-05-15T04:32:54.044Z,4.57
2023-05-15T04:35:21.080Z,3.67
2023-05-15T04:37:48.059Z,4.63
2023-05-15T04:40:16.560Z,3.63
2023-05-15T04:42:43.793Z,4.05
2023-05-15T04:45:12.177Z,5.03
2023-05-15T04:47:39.112Z,5.38
2023-05-15T04:50:06.912Z,7.60
2023-05-15T04:52:33.932Z,4.97
2023-05-15T04:55:00.870Z,7.82
2023-05-15T04:57:27.982Z,5.72
2023-05-15T04:59:54.921Z,7.07
2023-05-15T05:02:23.755Z,5.68
2023-05-15T05:04:50.897Z,5.50
2023-05-15T05:07:17.790Z,5.85
2023-05-15T05:09:45.006Z,5.82
2023-05-15T05:12:11.980Z,7.28
2023-05-15T05:14:40.762Z,6.47
2023-05-15T05:17:07.884Z,6.50
2023-05-15T05:19:36.184Z,9.52
2023-05-15T05:22:05.431Z,9.63
2023-05-15T05:24:32.808Z,7.63
2023-05-15T05:27:00.372Z,7.88
2023-05-15T05:29:27.439Z,8.70
2023-05-15T05:31:54.613Z,7.03
2023-05-15T05:34:22.047Z,7.45
2023-05-15T05:36:50.569Z,7.97
2023-05-15T05:41:44.662Z,8.05
2023-05-15T05:44:11.732Z,7.35
2023-05-15T05:46:38.700Z,8.15
2023-05-15T05:49:05.885Z,8.05
2023-05-15T05:51:32.778Z,8.60
2023-05-15T05:54:01.066Z,10.35
2023-05-15T05:58:56.491Z,6.55
2023-05-15T06:01:23.451Z,7.38
2023-05-15T06:03:50.495Z,5.40
2023-05-15T06:06:17.524Z,5.30
2023-05-15T06:08:44.458Z,7.93
2023-05-15T06:11:12.978Z,8.23
2023-05-15T06:13:40.612Z,7.05
2023-05-15T06:16:07.667Z,10.57
2023-05-15T06:18:34.587Z,8.35
2023-05-15T06:21:01.616Z,7.70
2023-05-15T06:23:28.555Z,7.03
2023-05-15T06:25:55.503Z,6.45
2023-05-15T06:28:23.757Z,5.57
2023-05-15T06:33:17.504Z,4.25
2023-05-15T06:35:44.692Z,4.55
2023-05-15T06:38:11.657Z,7.03
2023-05-15T06:40:38.555Z,4.57
2023-05-15T06:43:05.569Z,4.70
2023-05-15T06:45:33.866Z,4.75
2023-05-15T06:50:28.970Z,5.47
2023-05-15T06:52:55.868Z,4.05
2023-05-15T06:55:23.584Z,5.30
2023-05-15T06:57:50.658Z,5.90
2023-05-15T07:00:18.207Z,5.63
2023-05-15T07:02:46.529Z,6.03
2023-05-15T07:07:41.568Z,7.50
2023-05-15T07:10:09.493Z,9.82
2023-05-15T07:12:36.519Z,6.10
2023-05-15T07:15:03.746Z,5.13
2023-05-15T07:17:31.778Z,6.43
2023-05-15T07:20:00.188Z,6.78
2023-05-15T07:24:53.786Z,8.85
2023-05-15T07:27:20.639Z,7.60
2023-05-15T07:29:47.570Z,10.50
2023-05-15T07:32:14.476Z,9.60
2023-05-15T07:34:42.748Z,8.88
2023-05-15T07:39:38.021Z,12.18
2023-05-15T07:42:05.272Z,8.25
2023-05-15T07:44:32.212Z,7.93
2023-05-15T07:46:59.369Z,9.57
2023-05-15T07:49:26.279Z,10.23
2023-05-15T07:51:53.237Z,8.77
2023-05-15T07:54:21.828Z,10.77
2023-05-15T07:56:49.000Z,12.32
2023-05-15T07:59:16.153Z,17.55
2023-05-15T08:01:43.213Z,26.88
2023-05-15T08:04:10.145Z,15.07
2023-05-15T08:06:38.360Z,10.63
2023-05-15T08:09:05.454Z,10.65
2023-05-15T08:11:33.796Z,10.88
2023-05-15T08:14:00.779Z,11.98
2023-05-15T08:16:27.889Z,9.75
2023-05-15T08:18:58.757Z,11.65
2023-05-15T08:21:25.782Z,11.20
2023-05-15T08:23:53.848Z,13.00
2023-05-15T08:28:49.441Z,20.25
2023-05-15T08:33:43.285Z,15.07
2023-05-15T08:36:10.465Z,16.90
2023-05-15T08:38:37.309Z,17.38
2023-05-15T08:41:07.805Z,14.75
2023-05-15T08:43:36.956Z,19.15
2023-05-15T08:46:05.496Z,14.98
2023-05-15T08:48:37.272Z,13.75
2023-05-15T08:51:04.825Z,15.20
2023-05-15T08:53:32.124Z,14.20
2023-05-15T08:55:59.044Z,16.13
2023-05-15T08:58:28.476Z,16.33
2023-05-15T09:00:56.028Z,14.68
2023-05-15T09:03:28.146Z,14.80
2023-05-15T09:05:55.275Z,12.38
2023-05-15T09:08:23.037Z,13.18
2023-05-15T09:10:50.313Z,13.30
2023-05-15T09:13:17.591Z,14.18
2023-05-15T09:15:45.835Z,13.68
2023-05-15T09:20:40.923Z,12.60
2023-05-15T09:23:23.227Z,16.13
2023-05-15T09:25:53.665Z,13.23
2023-05-15T09:28:28.335Z,13.00
2023-05-15T09:31:00.574Z,12.80
2023-05-15T09:33:28.951Z,12.68
2023-05-15T09:35:57.356Z,14.23
2023-05-15T09:38:24.372Z,11.77
2023-05-15T09:40:51.988Z,11.73
2023-05-15T09:43:18.896Z,8.77
2023-05-15T09:45:48.527Z,10.82
2023-05-15T09:48:15.793Z,7.65
2023-05-15T09:50:43.000Z,9.25
2023-05-15T09:53:14.018Z,10.35
2023-05-15T09:55:42.220Z,8.20
2023-05-15T09:58:11.254Z,8.43
2023-05-15T10:00:48.249Z,10.25
2023-05-15T10:03:18.015Z,9.40
2023-05-15T10:05:45.159Z,9.25
2023-05-15T10:08:15.066Z,9.38
2023-05-15T10:10:42.588Z,9.35
2023-05-15T10:13:10.039Z,13.57
2023-05-15T10:15:37.532Z,10.95
2023-05-15T10:18:05.056Z,10.68
2023-05-15T10:20:35.675Z,10.38
2023-05-15T10:23:05.004Z,10.00
2023-05-15T10:25:39.945Z,10.18
2023-05-15T10:28:09.316Z,11.50
2023-05-15T10:30:36.824Z,10.25
2023-05-15T10:33:05.092Z,11.73
2023-05-15T10:35:32.117Z,10.32
2023-05-15T10:37:59.431Z,10.52
2023-05-15T10:40:27.392Z,13.07
2023-05-15T10:42:58.126Z,11.55
2023-05-15T10:45:25.496Z,11.75
2023-05-15T10:47:53.038Z,11.90
2023-05-15T10:50:20.197Z,11.52
2023-05-15T10:52:51.261Z,10.07
2023-05-15T10:55:18.857Z,9.63
2023-05-15T10:57:46.988Z,10.57
2023-05-15T11:00:41.876Z,13.60
2023-05-15T11:03:08.966Z,11.93
2023-05-15T11:06:09.882Z,12.15
2023-05-15T11:08:37.472Z,11.65
2023-05-15T11:11:04.376Z,11.15
2023-05-15T11:14:04.473Z,12.65
2023-05-15T11:17:04.320Z,13.57
2023-05-15T11:19:36.447Z,10.55
2023-05-15T11:22:15.812Z,13.20
2023-05-15T11:24:51.190Z,10.63
2023-05-15T11:27:20.552Z,13.75
2023-05-15T11:30:08.132Z,9.45
2023-05-15T11:32:50.796Z,12.40
2023-05-15T11:35:23.731Z,10.15
2023-05-15T11:37:52.106Z,11.75
2023-05-15T11:40:21.432Z,13.65
2023-05-15T11:43:05.344Z,14.77
2023-05-15T11:45:34.174Z,10.00
2023-05-15T11:48:03.902Z,13.13
2023-05-15T11:50:32.917Z,13.55
2023-05-15T11:53:04.118Z,14.25
2023-05-15T11:55:32.257Z,11.35
2023-05-15T11:57:59.585Z,11.77
2023-05-15T12:00:26.731Z,9.60
2023-05-15T12:02:53.986Z,11.88
2023-05-15T12:05:22.736Z,11.35
2023-05-15T12:07:50.336Z,10.18
2023-05-15T12:10:17.588Z,9.68
2023-05-15T12:12:48.586Z,10.35
2023-05-15T12:15:17.038Z,10.45
2023-05-15T12:17:45.305Z,14.85
2023-05-15T12:20:15.719Z,10.93
2023-05-15T12:22:44.101Z,10.10
2023-05-15T12:25:11.829Z,14.50
2023-05-15T12:27:39.693Z,11.80
2023-05-15T12:30:07.859Z,10.27
2023-05-15T12:32:36.377Z,11.05
2023-05-15T12:35:05.016Z,10.65
2023-05-15T12:37:33.665Z,12.32
2023-05-15T12:40:07.411Z,10.18
2023-05-15T12:42:39.075Z,8.55
2023-05-15T12:45:12.806Z,12.85
2023-05-15T12:47:39.804Z,12.80
2023-05-15T12:50:13.201Z,12.95
2023-05-15T12:52:40.699Z,11.63
2023-05-15T12:55:09.554Z,9.40
2023-05-15T12:57:36.543Z,13.38
2023-05-15T13:00:05.256Z,9.45
2023-05-15T13:02:32.330Z,14.07
2023-05-15T13:05:02.076Z,9.25
2023-05-15T13:07:29.825Z,7.88
2023-05-15T13:10:05.075Z,15.20
2023-05-15T13:12:37.502Z,10.48
2023-05-15T13:15:05.669Z,10.48
2023-05-15T13:17:33.410Z,12.00
2023-05-15T13:20:00.575Z,10.88
2023-05-15T13:22:28.103Z,9.63
2023-05-15T13:24:57.072Z,10.57
2023-05-15T13:27:24.023Z,9.93
2023-05-15T13:29:52.332Z,6.00
2023-05-15T13:32:19.205Z,9.38
2023-05-15T13:34:46.204Z,13.85
2023-05-15T13:37:13.161Z,7.22
2023-05-15T13:39:40.059Z,5.68
2023-05-15T13:42:06.990Z,7.63
2023-05-15T13:44:35.922Z,7.10
2023-05-15T13:47:04.641Z,7.28
2023-05-15T13:49:32.008Z,6.65
2023-05-15T13:51:59.311Z,6.72
2023-05-15T13:54:26.261Z,11.63
2023-05-15T13:56:53.408Z,6.55
2023-05-15T13:59:20.347Z,9.65
2023-05-15T14:01:47.575Z,8.50
2023-05-15T14:04:15.904Z,8.57
2023-05-15T14:06:42.864Z,10.50
2023-05-15T14:09:09.868Z,6.70
2023-05-15T14:11:36.741Z,7.43
2023-05-15T14:14:04.010Z,7.72
2023-05-15T14:16:30.879Z,7.28
2023-05-15T14:18:58.343Z,9.60
2023-05-15T14:21:26.639Z,9.27
2023-05-15T14:23:53.510Z,12.30
2023-05-15T14:26:20.444Z,10.38
2023-05-15T14:28:47.410Z,11.20
2023-05-15T14:31:14.388Z,10.93
2023-05-15T14:33:41.430Z,12.85
2023-05-15T14:36:08.587Z,8.88
2023-05-15T14:38:37.708Z,10.02
2023-05-15T14:41:04.950Z,10.77
2023-05-15T14:43:31.948Z,9.70
2023-05-15T14:45:58.957Z,9.35
2023-05-15T14:48:25.892Z,10.98
2023-05-15T14:50:52.844Z,11.10
2023-05-15T14:53:19.904Z,7.50
2023-05-15T14:55:48.161Z,8.70
2023-05-15T14:58:15.209Z,6.55
2023-05-15T15:00:42.110Z,6.53
2023-05-15T15:03:10.726Z,12.00
2023-05-15T15:05:37.703Z,8.43
2023-05-15T15:08:06.189Z,6.32
2023-05-15T15:10:34.403Z,5.88
2023-05-15T15:13:03.129Z,7.45
2023-05-15T15:15:30.690Z,8.38
2023-05-15T15:17:58.121Z,8.55
2023-05-15T15:20:26.578Z,5.18
2023-05-15T15:22:54.021Z,12.30
2023-05-15T15:25:21.306Z,6.10
2023-05-15T15:27:49.088Z,5.53
2023-05-15T15:32:45.136Z,4.82
2023-05-15T15:35:12.714Z,5.05
2023-05-15T15:37:39.723Z,5.70
2023-05-15T15:40:08.182Z,4.53
2023-05-15T15:42:35.396Z,5.55
2023-05-15T15:45:02.447Z,6.07
2023-05-15T15:47:32.152Z,5.75
2023-05-15T15:49:59.308Z,6.68
2023-05-15T15:52:26.713Z,5.15
2023-05-15T15:54:53.803Z,9.02
2023-05-15T15:57:21.626Z,6.70
2023-05-15T15:59:49.317Z,11.57
2023-05-15T16:02:16.834Z,6.78
2023-05-15T16:04:45.131Z,4.82
2023-05-15T16:07:12.077Z,5.45
2023-05-15T16:09:39.077Z,5.18
2023-05-15T16:12:06.293Z,6.78
2023-05-15T16:14:33.215Z,6.22
2023-05-15T16:17:02.700Z,8.52
2023-05-15T16:19:30.386Z,6.90
2023-05-15T16:21:58.796Z,8.02
2023-05-15T16:24:26.426Z,7.93
2023-05-15T16:26:53.368Z,4.18
2023-05-15T16:29:20.688Z,6.72
2023-05-15T16:31:47.570Z,8.73
2023-05-15T16:34:14.843Z,8.85
2023-05-15T16:36:42.204Z,5.95
2023-05-15T16:39:10.442Z,7.32
2023-05-15T16:41:37.375Z,10.20
2023-05-15T16:44:06.225Z,7.80
2023-05-15T16:46:33.340Z,7.22
2023-05-15T16:49:00.350Z,6.13
2023-05-15T16:51:27.260Z,6.95
2023-05-15T16:53:56.254Z,11.52
2023-05-15T16:56:24.496Z,13.48
2023-05-15T16:58:53.093Z,10.50
2023-05-15T17:01:20.150Z,8.90
2023-05-15T17:03:47.249Z,9.70
2023-05-15T17:06:14.237Z,10.65
2023-05-15T17:08:43.518Z,10.65
2023-05-15T17:11:10.631Z,13.02
2023-05-15T17:13:38.951Z,11.65
2023-05-15T17:16:06.650Z,13.20
2023-05-15T17:18:33.727Z,12.20
2023-05-15T17:21:00.751Z,9.73
2023-05-15T17:23:27.630Z,10.73
2023-05-15T17:25:54.709Z,14.15
2023-05-15T17:28:21.617Z,13.43
2023-05-15T17:30:49.884Z,13.00
2023-05-15T17:33:16.990Z,13.68
2023-05-15T17:35:43.920Z,11.50
2023-05-15T17:38:10.838Z,12.88
2023-05-15T17:40:37.850Z,11.10
2023-05-15T17:43:04.763Z,12.82
2023-05-15T17:45:31.743Z,9.38
2023-05-15T17:48:03.711Z,11.70
2023-05-15T17:50:30.950Z,13.45
2023-05-15T17:52:57.835Z,11.85
2023-05-15T17:55:25.008Z,13.40
2023-05-15T17:57:52.290Z,13.40
2023-05-15T18:00:19.666Z,13.13
2023-05-15T18:02:46.683Z,13.68
2023-05-15T18:05:15.137Z,11.18
2023-05-15T18:07:42.444Z,11.95
2023-05-15T18:10:10.153Z,9.10
2023-05-15T18:12:37.054Z,10.27
2023-05-15T18:15:04.645Z,12.43
2023-05-15T18:17:31.597Z,12.15
2023-05-15T18:19:58.960Z,14.70
2023-05-15T18:22:27.292Z,10.85
2023-05-15T18:24:54.295Z,13.48
2023-05-15T18:27:21.270Z,13.35
2023-05-15T18:29:48.227Z,12.88
2023-05-15T18:32:15.387Z,12.07
2023-05-15T18:34:42.225Z,11.27
2023-05-15T18:37:09.080Z,13.60
2023-05-15T18:39:38.968Z,15.50
2023-05-15T18:42:06.844Z,15.73
2023-05-15T18:44:34.920Z,18.20
2023-05-15T18:47:02.262Z,13.70
2023-05-15T18:49:29.694Z,15.98
2023-05-15T18:51:57.970Z,11.30
2023-05-15T18:56:53.226Z,18.17
2023-05-15T19:01:48.833Z,14.00
2023-05-15T19:04:15.867Z,14.45
2023-05-15T19:06:43.712Z,15.45
2023-05-15T19:09:10.836Z,17.27
2023-05-15T19:11:37.703Z,9.32
2023-05-15T19:14:06.068Z,17.20
2023-05-15T19:16:33.123Z,15.38
2023-05-15T19:19:00.255Z,16.98
2023-05-15T19:21:27.296Z,12.68
2023-05-15T19:23:54.392Z,14.23
2023-05-15T19:26:21.811Z,14.98
2023-05-15T19:28:48.778Z,12.23
2023-05-15T19:31:30.251Z,16.95
2023-05-15T19:33:58.693Z,15.35
2023-05-15T19:36:25.980Z,13.27
2023-05-15T19:38:53.084Z,12.30
2023-05-15T19:41:19.942Z,15.73
2023-05-15T19:43:47.150Z,13.98
2023-05-15T19:46:14.116Z,14.68
2023-05-15T19:48:42.640Z,13.98
2023-05-15T19:51:09.756Z,14.15
2023-05-15T19:53:36.743Z,17.10
2023-05-15T19:56:03.898Z,18.33
2023-05-15T19:58:31.224Z,17.90
2023-05-15T20:00:58.294Z,16.08
2023-05-15T20:03:32.497Z,15.38
2023-05-15T20:06:01.691Z,14.82
2023-05-15T20:08:28.935Z,19.58
2023-05-15T20:10:56.250Z,13.88
2023-05-15T20:13:24.015Z,12.63
2023-05-15T20:15:54.847Z,14.40
2023-05-15T20:18:21.968Z,13.05
2023-05-15T20:20:48.900Z,14.60
2023-05-15T20:23:17.242Z,14.88
2023-05-15T20:25:44.205Z,13.65
2023-05-15T20:28:11.318Z,12.38
2023-05-15T20:30:38.281Z,14.45
2023-05-15T20:33:05.404Z,15.65
2023-05-15T20:35:32.383Z,16.05
2023-05-15T20:37:59.285Z,12.15
2023-05-15T20:40:28.171Z,14.23
2023-05-15T20:42:56.918Z,13.13
2023-05-15T20:45:24.457Z,13.45
2023-05-15T20:47:51.429Z,14.98
2023-05-15T20:50:18.612Z,12.25
2023-05-15T20:52:46.153Z,12.35
2023-05-15T20:55:17.211Z,14.73
2023-05-15T20:57:46.716Z,16.45
2023-05-15T21:00:15.703Z,13.57
2023-05-15T21:02:43.119Z,12.75
2023-05-15T21:05:10.582Z,13.38
2023-05-15T21:07:37.485Z,16.70
2023-05-15T21:10:05.038Z,14.18
2023-05-15T21:12:34.533Z,14.80
2023-05-15T21:15:04.338Z,13.82
2023-05-15T21:17:31.494Z,15.05
2023-05-15T21:19:58.584Z,15.07
2023-05-15T21:22:25.818Z,15.70
2023-05-15T21:24:52.719Z,12.13
2023-05-15T21:27:19.745Z,13.68
2023-05-15T21:29:46.734Z,13.23
2023-05-15T21:32:15.215Z,12.38
2023-05-15T21:34:42.175Z,15.70
2023-05-15T21:37:09.096Z,12.82
2023-05-15T21:39:36.022Z,12.90
2023-05-15T21:42:02.982Z,14.63
2023-05-15T21:44:29.841Z,15.48
2023-05-15T21:46:57.082Z,14.20
2023-05-15T21:49:25.544Z,12.80
2023-05-15T21:51:52.546Z,10.75
2023-05-15T21:54:19.526Z,16.45
2023-05-15T21:56:46.439Z,12.85
2023-05-15T21:59:14.546Z,11.32
2023-05-15T22:01:41.634Z,11.77
2023-05-15T22:04:09.022Z,13.23
2023-05-15T22:06:37.456Z,12.00
2023-05-15T22:11:31.210Z,11.10
2023-05-15T22:13:58.169Z,10.40
2023-05-15T22:16:25.457Z,13.45
2023-05-15T22:18:54.062Z,15.32
2023-05-15T22:21:21.042Z,15.57
2023-05-15T22:23:49.365Z,13.25
2023-05-15T22:28:42.976Z,16.27
2023-05-15T22:31:09.939Z,13.52
2023-05-15T22:33:36.858Z,14.02
2023-05-15T22:36:04.273Z,13.45
2023-05-15T22:38:31.491Z,16.60
2023-05-15T22:40:59.848Z,15.27
2023-05-15T22:45:53.672Z,13.25
2023-05-15T22:48:21.053Z,13.45
2023-05-15T22:50:48.655Z,14.48
2023-05-15T22:53:15.767Z,11.82
2023-05-15T22:55:42.798Z,12.13
2023-05-15T22:58:11.131Z,13.57
2023-05-15T23:03:05.150Z,10.05
2023-05-15T23:05:32.059Z,11.40
2023-05-15T23:07:58.952Z,16.20
2023-05-15T23:10:26.235Z,16.40
2023-05-15T23:12:53.883Z,16.17
2023-05-15T23:15:22.188Z,10.73
2023-05-15T23:20:16.035Z,13.30
2023-05-15T23:22:43.013Z,13.13
2023-05-15T23:25:10.260Z,17.25
2023-05-15T23:27:37.198Z,14.45
2023-05-15T23:30:05.056Z,13.20
2023-05-15T23:32:33.426Z,11.45
2023-05-15T23:35:00.377Z,15.20
2023-05-15T23:37:27.282Z,14.27
2023-05-15T23:39:57.155Z,13.07
2023-05-15T23:42:24.120Z,15.13
2023-05-15T23:44:51.232Z,13.15
2023-05-15T23:47:18.185Z,15.57
2023-05-15T23:49:46.539Z,14.43
2023-05-15T23:52:13.617Z,15.00
2023-05-15T23:54:40.576Z,14.52
2023-05-15T23:57:07.472Z,12.57
2023-05-15T23:59:34.425Z,17.55
